Time;durP1;ratioP1;P1;durP2;ratioP2;P2;SDS_P1;SDS_P2;PMS_P1;PMS_P2;Temp;Humidity;BMP_temperature;BMP_pressure;BME280_temperature;BME280_humidity;BME280_pressure;Samples;Min_cycle;Max_cycle;Signal;HPM_P1;HPM_P2
2023/02/23 00:01:52;;;;;;;54.43;29.10;;;9.50;99.90;;;;;;5038825;28;20253;-61
2023/02/23 00:04:19;;;;;;;56.47;29.13;;;9.50;99.90;;;;;;5038140;28;20310;-61
2023/02/23 00:06:45;;;;;;;51.57;28.70;;;9.50;99.90;;;;;;5038127;28;20293;-61
2023/02/23 00:09:21;;;;;;;52.80;28.17;;;9.50;99.90;;;;;;5044231;28;20217;-61
2023/02/23 00:11:53;;;;;;;54.20;29.67;;;9.50;99.90;;;;;;5039322;28;20696;-61
2023/02/23 00:14:26;;;;;;;55.27;28.73;;;9.50;99.90;;;;;;5032623;28;20210;-61
2023/02/23 00:16:54;;;;;;;52.40;28.57;;;9.50;99.90;;;;;;5028971;28;20199;-61
2023/02/23 00:19:23;;;;;;;48.37;27.97;;;9.60;99.90;;;;;;5031677;28;20229;-61
2023/02/23 00:21:51;;;;;;;51.40;27.10;;;9.50;99.90;;;;;;5036434;28;20216;-61
2023/02/23 00:24:21;;;;;;;54.40;28.03;;;9.60;99.90;;;;;;5036169;28;20298;-62
2023/02/23 00:26:50;;;;;;;53.23;26.87;;;9.50;99.90;;;;;;5040107;28;20202;-63
2023/02/23 00:29:22;;;;;;;49.83;26.43;;;9.50;99.90;;;;;;5036358;28;20288;-63
2023/02/23 00:31:50;;;;;;;51.50;26.87;;;9.50;99.90;;;;;;5034902;28;20202;-64
2023/02/23 00:34:22;;;;;;;47.50;26.57;;;9.40;99.90;;;;;;5038928;28;20212;-63
2023/02/23 00:36:54;;;;;;;46.87;25.13;;;9.50;99.90;;;;;;5032512;28;20238;-63
2023/02/23 00:39:24;;;;;;;50.47;25.63;;;9.50;99.90;;;;;;5036298;28;20658;-63
2023/02/23 00:41:52;;;;;;;50.90;26.37;;;9.50;99.90;;;;;;5037848;28;20288;-63
2023/02/23 00:44:20;;;;;;;52.67;25.10;;;9.40;99.90;;;;;;5037218;28;20264;-63
2023/02/23 00:46:50;;;;;;;49.50;28.10;;;9.30;99.90;;;;;;5037139;28;20201;-63
2023/02/23 00:49:18;;;;;;;51.67;26.90;;;9.40;99.90;;;;;;5036754;28;20637;-63
2023/02/23 00:51:45;;;;;;;53.37;28.13;;;9.30;99.90;;;;;;5031080;28;20332;-63
2023/02/23 00:54:14;;;;;;;53.13;27.77;;;9.30;99.90;;;;;;5033564;28;20237;-63
2023/02/23 00:56:41;;;;;;;50.13;27.00;;;9.40;99.90;;;;;;5036477;28;20591;-63
2023/02/23 00:59:10;;;;;;;50.90;26.50;;;9.40;99.90;;;;;;5033534;28;20293;-63
2023/02/23 01:01:40;;;;;;;50.77;27.30;;;9.50;99.90;;;;;;5033194;28;20239;-63
2023/02/23 01:04:08;;;;;;;53.00;27.80;;;9.50;99.90;;;;;;5035607;28;20207;-63
2023/02/23 01:06:39;;;;;;;48.37;26.03;;;9.40;99.90;;;;;;5032715;28;20705;-63
2023/02/23 01:09:09;;;;;;;50.30;27.03;;;9.40;99.90;;;;;;5034406;28;20267;-63
2023/02/23 01:11:35;;;;;;;53.90;28.70;;;9.40;99.90;;;;;;5035886;28;20206;-63
2023/02/23 01:14:02;;;;;;;56.10;29.10;;;9.40;99.90;;;;;;5034141;28;20573;-63
2023/02/23 01:16:31;;;;;;;56.17;27.40;;;9.30;99.90;;;;;;5034407;28;20210;-63
2023/02/23 01:19:02;;;;;;;55.73;29.20;;;9.20;99.90;;;;;;5029743;28;20204;-63
2023/02/23 01:21:37;;;;;;;52.57;27.37;;;9.30;99.90;;;;;;5033190;28;20304;-63
2023/02/23 01:24:06;;;;;;;51.57;27.80;;;9.30;99.90;;;;;;5035222;28;20225;-63
2023/02/23 01:26:38;;;;;;;51.23;27.50;;;9.30;99.90;;;;;;5036506;28;20579;-63
2023/02/23 01:29:14;;;;;;;55.67;28.63;;;9.40;99.90;;;;;;5037639;28;20206;-63
2023/02/23 01:31:44;;;;;;;54.50;27.53;;;9.40;99.90;;;;;;5034807;28;20636;-64
2023/02/23 01:34:13;;;;;;;55.47;28.27;;;9.40;99.90;;;;;;5029042;28;20215;-63
2023/02/23 01:36:41;;;;;;;54.77;28.83;;;9.40;99.90;;;;;;5033403;28;20243;-63
2023/02/23 01:39:12;;;;;;;55.37;28.73;;;9.40;99.90;;;;;;5036224;28;20789;-64
2023/02/23 01:41:41;;;;;;;53.43;28.83;;;9.50;99.90;;;;;;5032985;28;20193;-63
2023/02/23 01:44:30;;;;;;;55.87;28.10;;;9.40;99.90;;;;;;5038445;28;20256;-62
2023/02/23 01:46:57;;;;;;;58.63;29.43;;;9.40;99.90;;;;;;5036693;28;20289;-64
2023/02/23 01:49:28;;;;;;;60.47;29.13;;;9.40;99.90;;;;;;5035314;28;20720;-65
2023/02/23 01:52:05;;;;;;;60.80;31.07;;;9.30;99.90;;;;;;5035838;28;20215;-64
2023/02/23 01:54:52;;;;;;;66.70;31.57;;;9.40;99.90;;;;;;5036318;28;20218;-64
2023/02/23 01:57:23;;;;;;;56.77;28.30;;;9.30;99.90;;;;;;5038040;28;20551;-65
2023/02/23 01:59:51;;;;;;;61.60;29.87;;;9.20;99.90;;;;;;5035646;28;20236;-63
2023/02/23 02:02:21;;;;;;;63.53;31.33;;;9.20;99.90;;;;;;5037347;28;20235;-63
2023/02/23 02:04:50;;;;;;;60.77;30.80;;;9.10;99.90;;;;;;5035385;28;20307;-63
2023/02/23 02:07:22;;;;;;;61.07;30.40;;;8.90;99.90;;;;;;5035415;28;20207;-63
2023/02/23 02:12:50;;;;;;;60.37;31.43;;;9.10;99.90;;;;;;5034582;28;20207;-63
2023/02/23 02:15:21;;;;;;;58.73;30.43;;;9.10;99.90;;;;;;5037911;28;20205;-63
2023/02/23 02:18:07;;;;;;;60.67;30.13;;;9.20;99.90;;;;;;5030257;28;20209;-63
2023/02/23 02:20:41;;;;;;;60.80;30.93;;;9.20;99.90;;;;;;5037785;28;20696;-65
2023/02/23 02:23:35;;;;;;;62.47;31.90;;;9.10;99.90;;;;;;5042430;28;20290;-63
2023/02/23 02:26:14;;;;;;;63.47;31.73;;;9.20;99.90;;;;;;5027742;28;20227;-63
2023/02/23 02:29:06;;;;;;;61.27;31.53;;;9.20;99.90;;;;;;5034767;28;20230;-63
2023/02/23 02:31:57;;;;;;;65.97;31.93;;;9.20;99.90;;;;;;5034876;28;20294;-63
2023/02/23 02:34:31;;;;;;;62.73;31.07;;;9.20;99.90;;;;;;5032006;28;20217;-63
2023/02/23 02:37:07;;;;;;;59.10;29.83;;;9.20;99.90;;;;;;5034645;28;20318;-63
2023/02/23 02:40:13;;;;;;;58.27;30.50;;;9.20;99.90;;;;;;5028065;28;20240;-63
2023/02/23 02:43:10;;;;;;;65.07;31.00;;;9.10;99.90;;;;;;5035054;28;20197;-63
2023/02/23 02:46:00;;;;;;;56.07;28.50;;;9.10;99.90;;;;;;5031458;28;20264;-63
2023/02/23 02:48:58;;;;;;;60.43;30.83;;;9.10;99.90;;;;;;5033462;28;20638;-64
2023/02/23 02:51:34;;;;;;;57.63;29.03;;;9.10;99.90;;;;;;5035191;28;20292;-64
2023/02/23 02:54:10;;;;;;;61.80;29.23;;;9.10;99.90;;;;;;5036173;28;20669;-64
2023/02/23 02:56:40;;;;;;;55.77;28.87;;;9.10;99.90;;;;;;5031030;28;20624;-64
2023/02/23 04:19:53;;;;;;;54.33;27.03;;;9.00;99.90;;;;;;5039763;28;20212;-63
2023/02/23 04:22:22;;;;;;;57.17;28.67;;;9.00;99.90;;;;;;5040269;28;20315;-63
2023/02/23 04:24:49;;;;;;;55.30;29.27;;;8.90;99.90;;;;;;5040854;28;20588;-64
2023/02/23 04:27:17;;;;;;;58.17;29.60;;;8.90;99.90;;;;;;5040376;28;20232;-65
2023/02/23 04:29:44;;;;;;;55.50;29.67;;;8.90;99.90;;;;;;5034133;28;20232;-65
2023/02/23 04:32:14;;;;;;;60.43;29.57;;;9.00;99.90;;;;;;5040430;28;20634;-64
2023/02/23 04:34:42;;;;;;;59.00;29.63;;;8.90;99.90;;;;;;5039099;28;20295;-65
2023/02/23 04:37:09;;;;;;;56.60;29.17;;;8.80;99.90;;;;;;5033870;28;20313;-62
2023/02/23 04:39:36;;;;;;;55.77;28.93;;;8.90;99.90;;;;;;5036976;28;20534;-62
2023/02/23 04:42:03;;;;;;;56.77;30.13;;;8.90;99.90;;;;;;5038645;28;20307;-65
2023/02/23 04:44:30;;;;;;;56.03;28.83;;;9.00;99.90;;;;;;5040014;28;20249;-62
2023/02/23 04:46:57;;;;;;;55.17;28.93;;;8.80;99.90;;;;;;5039575;28;20548;-65
2023/02/23 04:49:24;;;;;;;54.97;28.03;;;8.90;99.90;;;;;;5035909;28;20206;-65
2023/02/23 04:51:50;;;;;;;51.73;27.60;;;8.90;99.90;;;;;;5037819;28;20221;-64
2023/02/23 04:54:17;;;;;;;56.30;29.43;;;8.70;99.90;;;;;;5037220;28;20201;-64
2023/02/23 04:56:44;;;;;;;52.03;27.20;;;8.70;99.90;;;;;;5039226;28;20304;-64
2023/02/23 04:59:11;;;;;;;49.90;27.40;;;8.80;99.90;;;;;;5037000;28;20311;-64
2023/02/23 05:01:38;;;;;;;49.40;24.73;;;8.80;99.90;;;;;;5039314;28;20233;-64
2023/02/23 05:04:05;;;;;;;48.57;25.67;;;8.90;99.90;;;;;;5036838;28;20224;-64
2023/02/23 05:06:32;;;;;;;45.03;25.27;;;9.00;99.90;;;;;;5035091;28;20279;-66
2023/02/23 05:08:59;;;;;;;50.07;25.27;;;9.00;99.90;;;;;;5031502;28;20238;-62
2023/02/23 05:11:26;;;;;;;46.90;24.60;;;8.90;99.90;;;;;;5030723;28;20245;-62
2023/02/23 05:13:53;;;;;;;49.40;25.10;;;8.90;99.90;;;;;;5027709;28;20209;-64
2023/02/23 05:16:20;;;;;;;45.27;24.23;;;8.90;99.90;;;;;;5030184;28;20211;-62
2023/02/23 05:18:47;;;;;;;44.93;23.50;;;8.90;99.90;;;;;;5030103;28;20288;-62
2023/02/23 05:21:14;;;;;;;48.77;23.80;;;8.90;99.90;;;;;;5030426;28;20205;-62
2023/02/23 05:23:41;;;;;;;41.50;20.80;;;9.00;99.90;;;;;;5028927;28;20240;-64
2023/02/23 05:26:11;;;;;;;46.30;22.43;;;8.90;99.90;;;;;;5023025;28;20679;-63
2023/02/23 05:28:40;;;;;;;46.80;24.40;;;8.90;99.90;;;;;;5028418;28;20671;-63
2023/02/23 05:31:07;;;;;;;44.47;23.97;;;9.00;99.90;;;;;;5027458;28;20311;-62
2023/02/23 05:33:42;;;;;;;44.27;24.23;;;9.00;99.90;;;;;;4661134;28;9999682;-65
2023/02/23 05:36:11;;;;;;;44.40;24.47;;;9.00;99.90;;;;;;5021732;28;20288;-62
2023/02/23 05:38:39;;;;;;;47.80;25.07;;;9.00;99.90;;;;;;5024964;28;20256;-62
2023/02/23 05:41:11;;;;;;;48.80;25.60;;;9.00;99.90;;;;;;5024738;28;20372;-65
2023/02/23 05:43:39;;;;;;;47.00;24.93;;;9.10;99.90;;;;;;5026019;28;20227;-62
2023/02/23 05:46:07;;;;;;;49.13;25.13;;;9.00;99.90;;;;;;5022775;28;20228;-62
2023/02/23 05:48:34;;;;;;;47.77;24.23;;;9.00;99.90;;;;;;5021433;28;20200;-62
2023/02/23 05:51:03;;;;;;;44.13;24.10;;;9.10;99.90;;;;;;5021191;28;20235;-64
2023/02/23 05:53:31;;;;;;;53.30;26.27;;;9.10;99.90;;;;;;5006850;28;20300;-62
2023/02/23 05:55:58;;;;;;;46.70;25.73;;;9.10;99.90;;;;;;5016919;28;20630;-62
2023/02/23 05:58:25;;;;;;;48.60;25.67;;;9.10;99.90;;;;;;5024238;28;20342;-62
2023/02/23 06:00:52;;;;;;;48.33;25.30;;;9.10;99.90;;;;;;5024087;28;20288;-62
2023/02/23 06:03:20;;;;;;;51.63;26.73;;;9.10;99.90;;;;;;5028106;28;20261;-63
2023/02/23 06:05:55;;;;;;;53.73;27.87;;;9.10;99.90;;;;;;5017280;28;20486;-62
2023/02/23 06:08:24;;;;;;;53.83;27.53;;;9.10;99.90;;;;;;4669374;28;9999960;-62
2023/02/23 06:10:52;;;;;;;50.13;25.60;;;9.10;99.90;;;;;;5029350;28;20305;-63
2023/02/23 06:13:20;;;;;;;52.10;26.37;;;9.10;99.90;;;;;;5034238;28;20209;-64
2023/02/23 06:15:48;;;;;;;55.47;28.13;;;9.00;99.90;;;;;;5034594;28;20206;-63
2023/02/23 06:18:16;;;;;;;53.90;26.57;;;9.10;99.90;;;;;;5025798;28;20335;-63
2023/02/23 06:20:44;;;;;;;56.17;26.87;;;9.00;99.90;;;;;;5028694;28;20212;-63
2023/02/23 06:23:11;;;;;;;51.53;26.47;;;9.00;99.90;;;;;;5033544;28;20211;-63
2023/02/23 06:25:39;;;;;;;53.77;26.50;;;9.00;99.90;;;;;;5031207;28;20212;-62
2023/02/23 06:28:07;;;;;;;50.20;25.57;;;9.00;99.90;;;;;;5036079;28;20720;-63
2023/02/23 06:30:35;;;;;;;48.83;26.07;;;9.10;99.90;;;;;;5033288;28;20200;-63
2023/02/23 06:33:02;;;;;;;50.47;25.33;;;9.00;99.90;;;;;;5039213;28;20283;-63
2023/02/23 06:35:31;;;;;;;47.20;25.70;;;9.00;99.90;;;;;;5032147;28;20297;-62
2023/02/23 06:37:58;;;;;;;49.27;25.90;;;9.00;99.90;;;;;;5029151;28;20593;-63
2023/02/23 06:40:25;;;;;;;50.10;27.30;;;9.10;99.90;;;;;;5033516;28;20213;-62
2023/02/23 06:42:52;;;;;;;51.50;26.57;;;9.10;99.90;;;;;;5035124;28;20665;-62
2023/02/23 06:45:19;;;;;;;54.00;27.97;;;9.10;99.90;;;;;;5032260;28;21316;-62
2023/02/23 06:47:46;;;;;;;50.03;26.97;;;9.10;99.90;;;;;;5033977;28;20219;-62
2023/02/23 06:50:14;;;;;;;53.90;26.93;;;9.10;99.90;;;;;;5034131;28;20236;-62
2023/02/23 06:52:41;;;;;;;45.90;25.73;;;9.10;99.90;;;;;;5034173;28;20262;-65
2023/02/23 06:55:08;;;;;;;49.77;26.17;;;9.10;99.90;;;;;;5033783;28;20236;-66
2023/02/23 06:57:35;;;;;;;49.80;25.80;;;9.10;99.90;;;;;;5033814;28;20208;-63
2023/02/23 07:00:03;;;;;;;48.53;25.97;;;8.90;99.90;;;;;;5037158;28;20286;-63
2023/02/23 07:02:30;;;;;;;45.10;25.50;;;9.00;99.90;;;;;;5031130;28;20265;-63
2023/02/23 07:04:57;;;;;;;45.27;26.20;;;9.00;99.90;;;;;;5032077;28;20313;-63
2023/02/23 07:07:24;;;;;;;52.93;26.70;;;9.00;99.90;;;;;;5035242;28;20242;-63
2023/02/23 07:09:51;;;;;;;47.40;26.00;;;9.00;99.90;;;;;;5035611;28;20220;-63
2023/02/23 07:12:18;;;;;;;51.97;25.27;;;9.00;99.90;;;;;;5034233;28;20198;-63
2023/02/23 07:14:45;;;;;;;55.30;26.80;;;9.10;99.90;;;;;;5036269;28;20238;-64
2023/02/23 07:17:12;;;;;;;51.73;26.33;;;9.20;99.90;;;;;;5036963;28;20279;-64
2023/02/23 07:19:40;;;;;;;51.67;26.73;;;9.20;99.90;;;;;;5040019;28;20292;-63
2023/02/23 07:22:07;;;;;;;57.13;27.33;;;9.20;99.90;;;;;;5040852;28;20206;-63
2023/02/23 07:24:34;;;;;;;48.77;26.23;;;9.20;99.90;;;;;;5040799;28;20279;-63
2023/02/23 07:27:01;;;;;;;52.37;26.63;;;9.20;99.90;;;;;;5041241;28;20831;-63
2023/02/23 07:29:27;;;;;;;51.90;27.50;;;9.10;99.90;;;;;;5041501;28;20657;-63
2023/02/23 07:31:54;;;;;;;54.90;27.43;;;9.10;99.90;;;;;;5040002;28;20290;-63
2023/02/23 07:34:21;;;;;;;52.30;26.23;;;9.20;99.90;;;;;;5039769;28;20210;-63
2023/02/23 07:36:48;;;;;;;53.43;26.50;;;9.10;99.90;;;;;;5041305;28;20232;-61
2023/02/23 07:39:15;;;;;;;54.77;27.73;;;9.20;99.90;;;;;;5034109;28;20216;-61
2023/02/23 07:41:42;;;;;;;50.63;26.23;;;9.00;99.90;;;;;;5038306;28;20203;-60
2023/02/23 07:44:09;;;;;;;54.80;26.57;;;9.10;99.90;;;;;;5035409;28;20206;-61
2023/02/23 07:46:35;;;;;;;59.00;27.67;;;9.00;99.90;;;;;;5039283;28;20558;-61
2023/02/23 07:49:02;;;;;;;57.17;27.87;;;9.00;99.90;;;;;;5039212;28;20211;-60
2023/02/23 07:51:29;;;;;;;55.90;27.50;;;9.10;99.90;;;;;;5038645;28;20422;-61
2023/02/23 07:54:00;;;;;;;51.57;26.40;;;9.20;99.90;;;;;;5037306;28;20263;-61
2023/02/23 07:56:27;;;;;;;52.07;26.47;;;9.00;99.90;;;;;;5033860;28;20200;-61
2023/02/23 07:58:54;;;;;;;51.73;27.23;;;9.10;99.90;;;;;;5039266;28;20609;-60
2023/02/23 08:01:21;;;;;;;54.60;28.20;;;9.10;99.90;;;;;;5040033;28;20234;-60
2023/02/23 08:03:49;;;;;;;56.43;26.50;;;9.10;99.90;;;;;;5038296;28;20307;-60
2023/02/23 08:06:17;;;;;;;52.40;27.17;;;9.20;99.90;;;;;;5034496;28;20263;-60
2023/02/23 08:08:44;;;;;;;50.30;26.53;;;9.20;99.90;;;;;;5039658;28;20205;-60
2023/02/23 08:11:11;;;;;;;52.80;27.27;;;9.30;99.90;;;;;;5039028;28;20214;-61
2023/02/23 08:13:38;;;;;;;57.20;27.33;;;9.10;99.90;;;;;;5035793;28;20859;-60
2023/02/23 08:16:05;;;;;;;54.57;28.57;;;9.10;99.90;;;;;;5040045;28;20251;-60
2023/02/23 08:18:32;;;;;;;54.03;28.53;;;9.10;99.90;;;;;;5039536;28;20208;-61
2023/02/23 08:21:01;;;;;;;51.67;27.80;;;9.10;99.90;;;;;;5036069;28;20301;-60
2023/02/23 08:23:32;;;;;;;53.83;27.83;;;9.10;99.90;;;;;;5037040;28;20288;-60
2023/02/23 08:26:00;;;;;;;53.33;26.23;;;9.10;99.90;;;;;;5039506;28;20223;-59
2023/02/23 08:28:28;;;;;;;57.53;27.73;;;9.10;99.90;;;;;;5038373;28;20207;-61
2023/02/23 08:30:55;;;;;;;51.00;25.63;;;9.10;99.90;;;;;;5040136;28;20751;-62
2023/02/23 08:33:22;;;;;;;53.77;28.50;;;9.20;99.90;;;;;;5039919;28;20200;-60
2023/02/23 08:35:49;;;;;;;49.87;25.87;;;9.20;99.90;;;;;;5037607;28;20275;-60
2023/02/23 08:38:17;;;;;;;59.53;28.00;;;9.20;99.90;;;;;;5038844;28;20552;-60
2023/02/23 08:40:44;;;;;;;49.20;27.17;;;9.20;99.90;;;;;;5039662;28;20204;-61
2023/02/23 08:43:10;;;;;;;56.47;27.83;;;9.20;99.90;;;;;;5039913;28;20212;-60
2023/02/23 08:45:38;;;;;;;46.23;25.63;;;9.10;99.90;;;;;;5037629;28;20710;-60
2023/02/23 08:48:07;;;;;;;51.83;26.50;;;9.10;99.90;;;;;;5039641;28;20203;-60
2023/02/23 08:50:34;;;;;;;50.33;25.67;;;9.20;99.90;;;;;;5037043;28;20289;-60
2023/02/23 08:53:01;;;;;;;49.17;26.53;;;9.20;99.90;;;;;;5038125;28;20228;-59
2023/02/23 08:55:28;;;;;;;51.03;25.63;;;9.20;99.90;;;;;;5039251;28;20226;-59
2023/02/23 08:57:55;;;;;;;49.53;25.77;;;9.30;99.90;;;;;;5039234;28;20226;-60
2023/02/23 09:00:22;;;;;;;56.30;27.40;;;9.20;99.90;;;;;;5034398;28;20288;-60
2023/02/23 09:02:49;;;;;;;52.90;27.20;;;9.20;99.90;;;;;;5033714;28;20233;-59
2023/02/23 09:05:16;;;;;;;48.07;24.53;;;9.40;99.90;;;;;;5032985;28;20692;-60
2023/02/23 09:07:45;;;;;;;51.43;25.70;;;9.30;99.90;;;;;;5038344;28;20330;-61
2023/02/23 09:10:14;;;;;;;49.37;25.37;;;9.30;99.90;;;;;;5037562;28;20243;-60
2023/02/23 09:12:41;;;;;;;50.80;24.63;;;9.30;99.90;;;;;;5039504;28;20236;-62
2023/02/23 09:15:08;;;;;;;46.00;24.80;;;9.10;99.90;;;;;;5038841;28;20204;-60
2023/02/23 09:17:35;;;;;;;49.57;24.77;;;9.10;99.90;;;;;;5039371;28;20216;-59
2023/02/23 09:20:04;;;;;;;43.77;23.63;;;9.30;99.90;;;;;;5034493;28;20318;-60
2023/02/23 09:22:31;;;;;;;49.33;24.60;;;9.20;99.90;;;;;;5031126;28;20200;-61
2023/02/23 09:24:58;;;;;;;48.83;24.13;;;9.30;99.90;;;;;;5036551;28;20208;-63
2023/02/23 09:27:25;;;;;;;48.07;22.97;;;9.40;99.90;;;;;;5038323;28;20262;-63
2023/02/23 09:29:51;;;;;;;53.90;24.80;;;9.30;99.90;;;;;;5037472;28;20308;-63
2023/02/23 09:32:18;;;;;;;48.70;24.93;;;9.40;99.90;;;;;;5038536;28;20225;-64
2023/02/23 09:34:47;;;;;;;54.27;27.07;;;9.20;99.90;;;;;;5035963;28;20699;-63
2023/02/23 09:37:14;;;;;;;57.40;26.80;;;9.40;99.90;;;;;;5035364;28;20715;-63
2023/02/23 09:39:42;;;;;;;50.30;25.30;;;9.50;99.90;;;;;;5031759;28;20262;-63
2023/02/23 09:42:32;;;;;;;54.10;26.37;;;9.60;99.90;;;;;;5036493;28;20272;-64
2023/02/23 09:45:28;;;;;;;52.93;26.37;;;9.60;99.90;;;;;;5045142;28;20211;-65
2023/02/23 09:48:08;;;;;;;55.27;26.33;;;9.50;99.90;;;;;;5036447;28;20302;-66
2023/02/23 09:50:38;;;;;;;53.77;25.97;;;9.50;99.90;;;;;;5036277;28;20562;-64
2023/02/23 09:53:18;;;;;;;53.43;25.60;;;9.50;99.90;;;;;;5038078;28;20291;-65
2023/02/23 09:55:47;;;;;;;52.23;25.73;;;9.50;99.90;;;;;;5034454;28;20327;-65
2023/02/23 09:58:23;;;;;;;60.67;28.13;;;9.60;99.90;;;;;;5038271;28;20244;-64
2023/02/23 10:01:21;;;;;;;52.30;26.57;;;9.50;99.90;;;;;;5037283;28;20269;-64
2023/02/23 10:03:56;;;;;;;53.20;26.23;;;9.40;99.90;;;;;;5038493;28;20270;-65
2023/02/23 10:06:23;;;;;;;62.03;28.10;;;9.50;99.90;;;;;;5037799;28;20714;-64
2023/02/23 10:09:02;;;;;;;58.37;27.73;;;9.60;99.90;;;;;;5037946;28;20393;-61
2023/02/23 10:11:29;;;;;;;56.90;26.50;;;9.50;99.90;;;;;;5037997;28;20604;-62
2023/02/23 10:14:14;;;;;;;56.17;27.27;;;9.50;99.90;;;;;;5039115;28;20238;-61
2023/02/23 10:17:05;;;;;;;57.63;27.10;;;9.40;99.90;;;;;;5036430;28;20221;-59
2023/02/23 10:19:54;;;;;;;57.83;27.90;;;9.50;99.90;;;;;;5038588;28;20297;-58
2023/02/23 10:22:21;;;;;;;49.50;25.60;;;9.60;99.90;;;;;;5038097;28;20208;-62
2023/02/23 10:24:59;;;;;;;46.20;23.33;;;9.60;99.90;;;;;;5039405;28;20283;-59
2023/02/23 10:27:37;;;;;;;52.37;25.37;;;9.70;99.90;;;;;;5036148;28;20232;-59
2023/02/23 10:30:17;;;;;;;53.37;25.83;;;9.60;99.90;;;;;;5033124;28;20686;-60
2023/02/23 10:33:10;;;;;;;52.73;26.50;;;9.70;99.90;;;;;;5038039;28;20206;-59
2023/02/23 10:35:38;;;;;;;52.30;26.03;;;9.70;99.90;;;;;;5037551;28;20201;-60
2023/02/23 10:38:12;;;;;;;51.03;26.23;;;9.80;99.90;;;;;;5033110;28;20776;-59
2023/02/23 10:40:41;;;;;;;54.70;25.87;;;9.80;99.90;;;;;;5037763;28;20207;-62
2023/02/23 10:43:10;;;;;;;50.00;23.57;;;9.70;99.90;;;;;;5037681;28;20257;-60
2023/02/23 10:45:50;;;;;;;47.47;25.03;;;9.80;99.90;;;;;;5037528;28;20260;-60
2023/02/23 10:48:23;;;;;;;46.43;23.27;;;9.90;99.90;;;;;;5033028;28;20290;-60
2023/02/23 10:51:01;;;;;;;47.30;24.30;;;9.90;99.90;;;;;;5031808;28;20217;-60
2023/02/23 10:53:34;;;;;;;42.63;22.73;;;10.00;99.90;;;;;;5042438;28;20200;-60
2023/02/23 10:56:12;;;;;;;43.30;21.90;;;9.90;99.90;;;;;;5042431;28;20203;-60
2023/02/23 10:58:48;;;;;;;47.07;23.40;;;9.90;99.90;;;;;;5037208;28;20851;-59
2023/02/23 11:01:35;;;;;;;42.33;22.93;;;9.90;99.90;;;;;;5047896;28;20219;-60
2023/02/23 11:04:21;;;;;;;41.10;23.13;;;9.90;99.90;;;;;;5042141;28;20256;-60
2023/02/23 11:06:49;;;;;;;46.57;23.50;;;9.90;99.90;;;;;;5040637;28;20218;-60
2023/02/23 11:09:24;;;;;;;39.67;21.97;;;10.10;99.90;;;;;;5042302;28;20203;-60
2023/02/23 11:12:36;;;;;;;41.57;20.93;;;10.20;99.90;;;;;;5042072;28;20304;-59
2023/02/23 11:15:25;;;;;;;37.47;20.00;;;10.00;99.90;;;;;;5041904;28;20283;-61
2023/02/23 11:18:22;;;;;;;40.37;19.27;;;9.90;99.90;;;;;;5040923;28;20205;-67
2023/02/23 11:20:49;;;;;;;38.70;20.20;;;10.00;99.90;;;;;;5039067;28;21046;-62
2023/02/23 11:23:23;;;;;;;40.17;21.33;;;10.10;99.90;;;;;;5042304;28;20639;-60
2023/02/23 11:25:54;;;;;;;39.80;21.03;;;10.20;99.90;;;;;;5041323;28;20572;-60
2023/02/23 11:28:33;;;;;;;36.43;20.53;;;10.00;99.90;;;;;;5042324;28;20218;-60
2023/02/23 11:31:03;;;;;;;38.13;20.93;;;10.00;99.90;;;;;;5040305;28;20226;-62
2023/02/23 11:33:34;;;;;;;36.47;19.37;;;10.10;99.90;;;;;;5041672;28;20210;-60
2023/02/23 11:36:25;;;;;;;33.60;19.40;;;10.10;99.90;;;;;;5040286;28;20309;-60
2023/02/23 11:39:19;;;;;;;35.77;19.80;;;10.20;99.90;;;;;;5041091;28;20206;-61
2023/02/23 11:41:46;;;;;;;37.60;20.23;;;10.10;99.90;;;;;;5041001;28;20676;-60
2023/02/23 11:44:21;;;;;;;36.77;21.17;;;10.00;99.90;;;;;;5041648;28;20204;-60
2023/02/23 11:46:50;;;;;;;39.03;19.43;;;10.10;99.90;;;;;;5055450;28;20359;-60
2023/02/23 11:49:23;;;;;;;36.53;20.70;;;10.20;99.90;;;;;;5041861;28;20204;-64
2023/02/23 11:51:51;;;;;;;38.90;20.67;;;10.10;99.90;;;;;;5038489;28;20205;-60
2023/02/23 11:54:33;;;;;;;39.63;21.07;;;10.00;99.90;;;;;;5036792;28;21256;-60
2023/02/23 11:57:05;;;;;;;32.63;18.70;;;10.10;99.90;;;;;;5040225;28;20242;-60
2023/02/23 11:59:37;;;;;;;37.53;19.50;;;10.10;99.90;;;;;;5041427;28;20234;-60
2023/02/23 12:02:18;;;;;;;33.10;17.87;;;10.00;99.90;;;;;;5040310;28;20268;-59
2023/02/23 12:04:48;;;;;;;35.40;18.27;;;10.00;99.90;;;;;;5039487;28;20294;-61
2023/02/23 12:07:42;;;;;;;27.10;15.40;;;10.00;99.90;;;;;;5032871;28;20224;-60
2023/02/23 12:10:17;;;;;;;24.17;13.00;;;10.00;99.90;;;;;;5036112;28;21135;-59
2023/02/23 12:13:10;;;;;;;26.30;13.80;;;9.90;99.90;;;;;;5040436;28;20260;-61
2023/02/23 12:15:49;;;;;;;24.27;12.87;;;9.90;99.90;;;;;;5036390;28;20229;-60
2023/02/23 12:18:21;;;;;;;25.73;13.07;;;9.90;99.90;;;;;;5035223;28;20338;-60
2023/02/23 12:20:53;;;;;;;24.60;13.47;;;10.20;99.90;;;;;;5039578;28;20377;-60
2023/02/23 12:23:28;;;;;;;21.83;12.70;;;10.10;99.90;;;;;;5041467;28;20269;-60
2023/02/23 12:26:10;;;;;;;21.80;11.80;;;10.30;99.90;;;;;;5039057;28;20213;-60
2023/02/23 12:29:03;;;;;;;17.70;10.60;;;10.20;99.90;;;;;;5036970;28;20328;-60
2023/02/23 12:31:41;;;;;;;17.67;10.30;;;10.30;99.90;;;;;;5039748;28;20239;-60
2023/02/23 12:34:20;;;;;;;20.73;11.83;;;10.20;99.90;;;;;;5040065;28;20509;-59
2023/02/23 12:36:55;;;;;;;17.70;10.47;;;10.30;99.90;;;;;;5039568;28;20884;-60
2023/02/23 12:39:31;;;;;;;15.00;9.00;;;10.30;99.90;;;;;;5038562;28;20203;-59
2023/02/23 12:42:10;;;;;;;13.07;8.87;;;10.00;99.90;;;;;;5039326;28;20572;-60
2023/02/23 12:44:48;;;;;;;12.87;8.23;;;10.00;99.90;;;;;;5040539;28;20246;-60
2023/02/23 12:47:26;;;;;;;13.87;9.47;;;10.20;99.90;;;;;;5039344;28;20757;-60
2023/02/23 12:50:06;;;;;;;13.80;9.03;;;10.20;99.90;;;;;;5039915;28;20204;-60
2023/02/23 12:52:37;;;;;;;14.63;8.73;;;10.20;99.90;;;;;;5039195;28;20226;-59
2023/02/23 12:55:10;;;;;;;14.17;8.67;;;10.00;99.90;;;;;;5039627;28;20208;-61
2023/02/23 12:57:53;;;;;;;15.13;8.37;;;9.90;99.90;;;;;;5040150;28;20659;-62
2023/02/23 13:00:44;;;;;;;13.13;8.60;;;9.80;99.90;;;;;;5038575;28;20286;-60
2023/02/23 13:03:48;;;;;;;13.73;8.27;;;9.90;99.90;;;;;;5039215;28;20197;-61
2023/02/23 13:06:49;;;;;;;11.00;7.40;;;9.80;99.90;;;;;;5036855;28;20221;-61
2023/02/23 13:09:22;;;;;;;11.40;7.07;;;9.80;99.90;;;;;;5039653;28;20614;-62
2023/02/23 13:12:00;;;;;;;12.40;7.73;;;9.80;99.90;;;;;;5046536;28;20245;-61
2023/02/23 13:14:51;;;;;;;12.37;7.33;;;9.80;99.90;;;;;;5038142;28;20611;-61
2023/02/23 13:17:39;;;;;;;13.57;8.33;;;9.80;99.90;;;;;;5038402;28;20247;-61
2023/02/23 13:20:27;;;;;;;16.00;9.13;;;9.60;99.90;;;;;;5038511;28;20244;-61
2023/02/23 13:23:09;;;;;;;13.50;8.80;;;9.70;99.90;;;;;;5039262;28;20194;-61
2023/02/23 13:25:54;;;;;;;14.57;8.83;;;9.70;99.90;;;;;;5033795;28;20218;-61
2023/02/23 13:28:55;;;;;;;14.07;9.70;;;9.70;99.90;;;;;;5039707;28;20255;-61
2023/02/23 13:31:32;;;;;;;13.03;8.23;;;9.70;99.90;;;;;;5037224;28;20209;-61
2023/02/23 13:34:02;;;;;;;14.13;7.87;;;9.70;99.90;;;;;;5037908;28;20215;-65
2023/02/23 13:36:31;;;;;;;10.90;6.63;;;9.60;99.90;;;;;;5037960;28;20321;-61
2023/02/23 13:39:26;;;;;;;9.43;6.60;;;9.40;99.90;;;;;;5038669;28;20249;-61
2023/02/23 13:42:12;;;;;;;14.67;6.90;;;9.30;99.90;;;;;;5038995;28;20210;-61
2023/02/23 13:45:05;;;;;;;10.80;7.27;;;9.40;99.90;;;;;;5046007;28;20234;-61
2023/02/23 13:47:35;;;;;;;10.50;6.53;;;9.50;99.90;;;;;;5038811;28;20344;-61
2023/02/23 13:50:18;;;;;;;14.97;7.63;;;9.60;99.90;;;;;;5038173;28;20231;-61
2023/02/23 13:52:45;;;;;;;12.27;6.67;;;9.50;99.90;;;;;;5038078;28;20272;-62
2023/02/23 13:55:27;;;;;;;12.87;7.33;;;9.40;99.90;;;;;;5038597;28;20612;-62
2023/02/23 13:58:15;;;;;;;12.77;7.40;;;9.60;99.90;;;;;;5038432;28;20254;-61
2023/02/23 14:00:42;;;;;;;13.73;7.90;;;9.70;99.90;;;;;;5038636;28;20317;-61
2023/02/23 14:03:23;;;;;;;13.07;7.93;;;9.80;99.90;;;;;;5038162;28;20203;-61
2023/02/23 14:05:58;;;;;;;13.37;7.60;;;9.70;99.90;;;;;;5037314;28;20220;-61
2023/02/23 14:08:34;;;;;;;13.27;7.50;;;9.70;99.90;;;;;;5037717;28;20215;-61
2023/02/23 14:11:01;;;;;;;13.50;7.17;;;9.70;99.90;;;;;;5037577;28;20210;-61
2023/02/23 14:13:33;;;;;;;13.73;6.93;;;9.80;99.90;;;;;;5039018;28;20542;-61
2023/02/23 14:16:19;;;;;;;13.93;8.37;;;9.80;99.90;;;;;;5037059;28;20234;-61
2023/02/23 14:19:14;;;;;;;13.60;8.00;;;9.80;99.90;;;;;;5039414;28;20218;-61
2023/02/23 14:22:01;;;;;;;12.57;7.43;;;9.70;99.90;;;;;;5037171;28;20689;-61
2023/02/23 14:24:28;;;;;;;12.93;7.90;;;9.70;99.90;;;;;;5038030;28;20571;-62
2023/02/23 14:27:17;;;;;;;11.57;7.73;;;9.70;99.90;;;;;;5036783;28;20315;-62
2023/02/23 14:30:10;;;;;;;13.20;7.20;;;9.90;99.90;;;;;;5038599;28;20214;-61